Terminal Aerodrome Forecast
Issued by NWS

Home | Current Version | Previous Version | Text Only | Print | Product List | Glossary On
Versions: 1 2 3 4 5 6 7 8 9 10 11 12 13 14
000
FTUS43 KIND 081727
TAFBMG
TAF
KBMG 081727Z 0818/0918 28012G20KT P6SM BKN030
     FM090000 29009KT P6SM BKN025
     FM091600 29006KT P6SM BKN035
     FM091700 28006KT P6SM SCT040=

USA.gov is the U.S. government's official web portal to all federal, state and local government web resources and services.